createdAt,value
2019-02-16T00:00:02.271Z,87.70
2019-02-16T00:02:34.720Z,86.80
2019-02-16T00:05:05.386Z,86.90
2019-02-16T00:07:36.174Z,86.60
2019-02-16T00:10:07.014Z,86.50
2019-02-16T00:12:37.682Z,86.50
2019-02-16T00:15:08.302Z,87.50
2019-02-16T00:17:39.125Z,88.10
2019-02-16T00:20:09.786Z,88.80
2019-02-16T00:22:40.974Z,87.50
2019-02-16T00:25:11.898Z,87.50
2019-02-16T00:27:42.796Z,87.70
2019-02-16T00:30:13.668Z,87.70
2019-02-16T00:32:48.120Z,88.60
2019-02-16T00:35:18.951Z,87.70
2019-02-16T00:37:49.715Z,88.90
2019-02-16T00:40:20.590Z,89.30
2019-02-16T00:42:51.402Z,90.10
2019-02-16T00:45:22.168Z,90.30
2019-02-16T00:47:53.091Z,90.10
2019-02-16T00:50:23.831Z,90.00
2019-02-16T00:52:54.724Z,89.80
2019-02-16T00:55:25.519Z,90.00
2019-02-16T00:57:56.292Z,88.60
2019-02-16T01:00:27.062Z,87.90
2019-02-16T01:02:57.866Z,90.00
2019-02-16T01:05:28.513Z,89.80
2019-02-16T01:07:59.812Z,89.40
2019-02-16T01:10:30.819Z,88.40
2019-02-16T01:13:01.638Z,88.60
2019-02-16T01:15:32.408Z,90.00
2019-02-16T01:18:03.196Z,89.10
2019-02-16T01:20:33.946Z,87.90
2019-02-16T01:23:04.968Z,88.80
2019-02-16T01:25:35.742Z,87.70
2019-02-16T01:28:06.634Z,88.00
2019-02-16T01:30:37.427Z,87.90
2019-02-16T01:33:08.176Z,90.00
2019-02-16T01:35:38.903Z,90.60
2019-02-16T01:38:09.676Z,89.30
2019-02-16T01:40:40.440Z,88.00
2019-02-16T01:43:11.247Z,88.50
2019-02-16T01:45:42.076Z,90.50
2019-02-16T01:48:12.915Z,90.70
2019-02-16T01:50:43.771Z,89.30
2019-02-16T01:53:14.597Z,88.30
2019-02-16T01:55:45.123Z,88.20
2019-02-16T01:58:16.027Z,89.30
2019-02-16T02:00:47.636Z,89.60
2019-02-16T02:03:18.509Z,90.50
2019-02-16T02:05:49.298Z,90.10
2019-02-16T02:08:21.060Z,89.50
2019-02-16T02:10:51.815Z,89.30
2019-02-16T02:13:22.581Z,90.30
2019-02-16T02:15:53.359Z,91.00
2019-02-16T02:18:24.255Z,90.70
2019-02-16T02:20:54.927Z,91.00
2019-02-16T02:23:26.001Z,91.00
2019-02-16T02:25:56.604Z,90.30
2019-02-16T02:28:27.183Z,89.50
2019-02-16T02:30:57.800Z,89.40
2019-02-16T02:33:28.601Z,89.40
2019-02-16T02:35:59.358Z,90.70
2019-02-16T02:38:29.947Z,91.00
2019-02-16T02:41:02.260Z,90.80
2019-02-16T02:43:33.054Z,90.60
2019-02-16T02:46:03.856Z,90.20
2019-02-16T02:48:34.550Z,89.20
2019-02-16T02:51:05.326Z,89.40
2019-02-16T02:53:36.029Z,90.20
2019-02-16T02:56:06.752Z,90.80
2019-02-16T02:58:37.474Z,91.30
2019-02-16T03:01:08.239Z,91.30
2019-02-16T03:03:39.035Z,91.90
2019-02-16T03:06:09.724Z,91.60
2019-02-16T03:08:40.615Z,91.00
2019-02-16T03:11:11.413Z,90.80
2019-02-16T03:13:42.262Z,90.30
2019-02-16T03:16:13.137Z,89.80
2019-02-16T03:18:43.862Z,90.80
2019-02-16T03:21:16.201Z,91.40
2019-02-16T03:23:53.180Z,91.50
2019-02-16T03:27:09.356Z,91.00
2019-02-16T03:30:29.958Z,90.80
2019-02-16T03:33:34.710Z,91.30
2019-02-16T03:36:51.513Z,92.00
2019-02-16T03:39:34.750Z,91.80
2019-02-16T03:42:05.532Z,91.00
2019-02-16T03:44:36.422Z,90.80
2019-02-16T03:47:07.226Z,91.00
2019-02-16T03:49:37.898Z,90.80
2019-02-16T03:52:13.732Z,90.50
2019-02-16T03:54:41.086Z,90.70
2019-02-16T03:57:11.937Z,90.80
2019-02-16T03:59:42.784Z,90.50
2019-02-16T04:02:13.437Z,90.80
2019-02-16T04:04:44.229Z,91.40
2019-02-16T04:07:15.007Z,91.30
2019-02-16T04:09:45.808Z,91.20
2019-02-16T04:12:16.497Z,90.50
2019-02-16T04:14:47.268Z,91.20
2019-02-16T04:17:18.037Z,90.60
2019-02-16T04:19:48.726Z,90.40
2019-02-16T04:22:24.527Z,90.80
2019-02-16T04:24:52.026Z,90.60
2019-02-16T04:27:22.818Z,90.60
2019-02-16T04:29:53.548Z,90.50
2019-02-16T04:32:24.315Z,91.10
2019-02-16T04:34:55.082Z,91.10
2019-02-16T04:37:25.953Z,91.60
2019-02-16T04:39:56.745Z,91.10
2019-02-16T04:42:27.533Z,91.40
2019-02-16T04:44:58.205Z,91.20
2019-02-16T04:47:29.017Z,90.60
2019-02-16T04:49:59.778Z,90.10
2019-02-16T04:52:35.009Z,89.70
2019-02-16T04:55:03.012Z,89.90
2019-02-16T04:57:33.787Z,90.10
2019-02-16T05:00:04.357Z,91.10
2019-02-16T05:02:35.946Z,91.90
2019-02-16T05:05:06.754Z,91.00
2019-02-16T05:07:37.401Z,91.10
2019-02-16T05:10:08.216Z,90.80
2019-02-16T05:12:38.956Z,91.20
2019-02-16T05:15:09.858Z,92.40
2019-02-16T05:17:40.655Z,92.20
2019-02-16T05:20:11.442Z,92.50
2019-02-16T05:22:44.866Z,92.10
2019-02-16T05:25:14.767Z,92.40
2019-02-16T05:27:45.557Z,91.80
2019-02-16T05:30:16.360Z,92.10
2019-02-16T05:32:48.146Z,93.20
2019-02-16T05:35:19.970Z,92.40
2019-02-16T05:37:50.609Z,91.70
2019-02-16T05:40:21.507Z,91.40
2019-02-16T05:42:52.076Z,91.30
2019-02-16T05:45:22.986Z,91.10
2019-02-16T05:47:53.749Z,90.40
2019-02-16T05:50:24.439Z,90.20
2019-02-16T05:52:55.209Z,90.30
2019-02-16T05:55:25.911Z,90.20
2019-02-16T05:57:56.602Z,90.10
2019-02-16T06:00:29.402Z,90.60
2019-02-16T06:03:00.230Z,90.30
2019-02-16T06:05:30.984Z,90.40
2019-02-16T06:08:42.652Z,90.40
2019-02-16T06:11:13.441Z,90.30
2019-02-16T06:13:44.204Z,90.70
2019-02-16T06:16:14.906Z,91.30
2019-02-16T06:18:45.654Z,91.80
2019-02-16T06:21:16.346Z,91.30
2019-02-16T06:23:47.153Z,91.30
2019-02-16T06:26:17.933Z,91.80
2019-02-16T06:28:48.582Z,91.90
2019-02-16T06:31:19.278Z,92.20
2019-02-16T06:33:50.081Z,91.80
2019-02-16T06:36:25.621Z,91.70
2019-02-16T06:38:56.310Z,91.80
2019-02-16T06:41:27.114Z,91.40
2019-02-16T06:47:13.230Z,91.50
2019-02-16T06:49:44.011Z,91.60
2019-02-16T06:52:14.829Z,91.90
2019-02-16T06:54:45.607Z,91.40
2019-02-16T06:57:23.309Z,91.40
2019-02-16T06:59:54.213Z,92.30
2019-02-16T07:02:25.903Z,91.90
2019-02-16T07:04:56.713Z,92.00
2019-02-16T07:07:27.472Z,92.00
2019-02-16T07:09:58.270Z,92.20
2019-02-16T07:12:28.967Z,92.40
2019-02-16T07:15:04.761Z,92.40
2019-02-16T07:18:00.814Z,92.40
2019-02-16T07:20:31.593Z,92.30
2019-02-16T07:23:02.216Z,92.30
2019-02-16T07:25:32.870Z,92.00
2019-02-16T07:28:03.553Z,92.00
2019-02-16T07:30:34.357Z,92.20
2019-02-16T07:33:05.040Z,92.00
2019-02-16T07:35:35.721Z,91.80
2019-02-16T07:38:06.763Z,91.80
2019-02-16T07:40:37.583Z,91.50
2019-02-16T07:43:09.988Z,91.40
2019-02-16T07:46:05.706Z,91.60
2019-02-16T07:48:57.226Z,91.40
2019-02-16T07:51:45.981Z,90.20
2019-02-16T07:54:35.774Z,90.20
2019-02-16T07:57:33.446Z,90.00
2019-02-16T08:00:22.078Z,88.30
2019-02-16T08:03:20.664Z,85.90
2019-02-16T08:06:10.454Z,84.60
2019-02-16T08:08:48.348Z,83.70
2019-02-16T08:11:40.894Z,82.90
2019-02-16T08:14:21.862Z,81.30
2019-02-16T08:17:04.782Z,81.60
2019-02-16T08:20:06.597Z,80.30
2019-02-16T08:22:53.350Z,79.50
2019-02-16T08:25:55.154Z,78.70
2019-02-16T08:28:37.007Z,77.30
2019-02-16T08:31:17.465Z,76.20
2019-02-16T08:34:10.113Z,75.20
2019-02-16T08:36:47.604Z,74.50
2019-02-16T08:39:37.384Z,73.20
2019-02-16T08:42:39.245Z,73.10
2019-02-16T08:45:17.147Z,71.20
2019-02-16T08:47:58.222Z,70.70
2019-02-16T08:50:50.986Z,69.90
2019-02-16T08:53:30.922Z,67.70
2019-02-16T08:56:20.599Z,68.00
2019-02-16T08:59:16.215Z,67.80
2019-02-16T09:02:11.729Z,64.80
2019-02-16T09:04:52.294Z,63.50
2019-02-16T09:07:44.860Z,59.30
2019-02-16T09:10:33.492Z,63.00
2019-02-16T09:13:19.175Z,61.90
2019-02-16T09:16:18.170Z,56.80
2019-02-16T09:18:59.449Z,59.10
2019-02-16T09:21:47.898Z,57.80
2019-02-16T09:24:28.359Z,58.20
2019-02-16T09:27:14.659Z,58.80
2019-02-16T09:30:13.756Z,57.40
2019-02-16T09:33:06.714Z,56.60
2019-02-16T09:35:50.449Z,56.70
2019-02-16T09:38:43.197Z,56.10
2019-02-16T09:41:35.536Z,55.90
2019-02-16T09:44:24.292Z,53.90
2019-02-16T09:47:14.077Z,54.90
2019-02-16T09:50:04.699Z,54.80
2019-02-16T09:52:51.581Z,52.90
2019-02-16T09:55:59.896Z,51.70
2019-02-16T09:58:58.687Z,51.50
2019-02-16T10:01:57.786Z,51.40
2019-02-16T10:04:56.372Z,51.80
2019-02-16T10:07:51.680Z,49.90
2019-02-16T10:10:47.712Z,49.00
2019-02-16T10:13:40.250Z,49.30
2019-02-16T10:16:48.564Z,50.10
2019-02-16T10:19:31.894Z,47.30
2019-02-16T10:22:33.655Z,45.90
2019-02-16T10:25:14.115Z,44.70
2019-02-16T10:28:02.870Z,45.20
2019-02-16T10:31:01.569Z,45.70
2019-02-16T10:33:51.237Z,44.70
2019-02-16T10:36:34.975Z,41.80
2019-02-16T10:39:29.055Z,41.80
2019-02-16T10:42:10.642Z,44.70
2019-02-16T10:44:50.695Z,45.80
2019-02-16T10:47:59.113Z,44.30
2019-02-16T10:50:46.023Z,48.30
2019-02-16T10:53:28.635Z,46.10
2019-02-16T10:56:23.739Z,45.80
2019-02-16T10:59:02.869Z,46.30
2019-02-16T11:01:51.524Z,43.80
2019-02-16T11:04:40.381Z,44.00
2019-02-16T11:07:39.276Z,45.30
2019-02-16T11:10:31.716Z,47.00
2019-02-16T11:13:27.333Z,44.10
2019-02-16T11:16:13.837Z,45.80
2019-02-16T11:19:06.790Z,45.70
2019-02-16T11:21:53.089Z,47.30
2019-02-16T11:24:41.742Z,44.00
2019-02-16T11:27:31.521Z,44.10
2019-02-16T11:30:19.048Z,44.40
2019-02-16T11:33:08.938Z,44.20
2019-02-16T11:35:52.362Z,45.60
2019-02-16T11:38:29.238Z,41.10
2019-02-16T11:41:30.897Z,45.90
2019-02-16T11:44:26.820Z,40.90
2019-02-16T11:47:23.790Z,40.40
2019-02-16T11:50:11.097Z,42.00
2019-02-16T11:53:13.056Z,41.00
2019-02-16T11:55:56.413Z,45.10
2019-02-16T11:58:48.827Z,46.30
2019-02-16T12:01:37.378Z,42.80
2019-02-16T12:04:36.376Z,44.50
2019-02-16T12:07:14.377Z,40.60
2019-02-16T12:10:10.915Z,39.80
2019-02-16T12:13:02.640Z,40.80
2019-02-16T12:15:55.186Z,42.50
2019-02-16T12:18:40.050Z,41.90
2019-02-16T12:21:35.667Z,40.60
2019-02-16T12:24:31.487Z,42.00
2019-02-16T12:27:10.208Z,38.90
2019-02-16T12:29:58.963Z,42.30
2019-02-16T12:32:48.772Z,42.00
2019-02-16T12:35:41.801Z,42.40
2019-02-16T12:38:30.352Z,40.80
2019-02-16T12:41:20.158Z,42.00
2019-02-16T12:44:08.786Z,41.60
2019-02-16T12:46:48.016Z,44.80
2019-02-16T12:49:46.706Z,44.10
2019-02-16T12:52:48.877Z,44.50
2019-02-16T12:55:47.667Z,42.30
2019-02-16T12:58:27.822Z,43.40
2019-02-16T13:01:20.572Z,46.90
2019-02-16T13:04:16.302Z,41.40
2019-02-16T13:07:05.249Z,44.70
2019-02-16T13:09:44.148Z,42.70
2019-02-16T13:12:20.645Z,46.00
2019-02-16T13:15:10.319Z,44.90
2019-02-16T13:17:59.997Z,42.70
2019-02-16T13:20:49.777Z,42.70
2019-02-16T13:23:44.983Z,45.20
2019-02-16T13:26:30.769Z,45.50
2019-02-16T13:29:39.288Z,44.70
2019-02-16T13:33:14.124Z,43.40
2019-02-16T13:36:09.536Z,41.70
2019-02-16T13:39:02.184Z,46.30
2019-02-16T13:41:52.578Z,45.10
2019-02-16T13:44:44.200Z,47.50
2019-02-16T13:47:20.257Z,46.30
2019-02-16T13:50:01.539Z,46.90
2019-02-16T13:52:57.462Z,45.30
2019-02-16T13:55:59.531Z,45.40
2019-02-16T13:58:37.842Z,41.50
2019-02-16T14:01:25.298Z,45.50
2019-02-16T14:04:22.729Z,46.90
2019-02-16T14:07:12.521Z,44.50
2019-02-16T14:10:06.807Z,42.80
2019-02-16T14:12:56.879Z,41.50
2019-02-16T14:15:46.685Z,45.90
2019-02-16T14:18:17.391Z,40.50
2019-02-16T14:20:48.057Z,41.50
2019-02-16T14:23:18.855Z,46.40
2019-02-16T14:25:50.946Z,41.60
2019-02-16T14:28:21.830Z,44.10
2019-02-16T14:30:52.414Z,41.10
2019-02-16T14:33:23.193Z,43.20
2019-02-16T14:35:54.001Z,44.50
2019-02-16T14:38:48.144Z,43.30
2019-02-16T14:41:18.906Z,46.60
2019-02-16T14:43:49.773Z,46.90
2019-02-16T14:46:20.694Z,47.00
2019-02-16T14:48:51.339Z,47.30
2019-02-16T14:51:22.046Z,46.40
2019-02-16T14:53:52.802Z,47.30
2019-02-16T14:56:23.414Z,44.10
2019-02-16T14:58:54.235Z,48.20
2019-02-16T15:01:24.970Z,46.90
2019-02-16T15:03:55.761Z,48.00
2019-02-16T15:06:26.477Z,47.90
2019-02-16T15:08:57.221Z,50.30
2019-02-16T15:11:28.040Z,50.50
2019-02-16T15:13:58.782Z,48.60
2019-02-16T15:16:29.400Z,50.00
2019-02-16T15:19:00.249Z,50.80
2019-02-16T15:21:31.042Z,49.30
2019-02-16T15:24:01.855Z,51.20
2019-02-16T15:26:32.603Z,51.00
2019-02-16T15:29:03.406Z,54.10
2019-02-16T15:31:34.182Z,53.30
2019-02-16T15:34:04.989Z,53.80
2019-02-16T15:36:35.750Z,55.40
2019-02-16T15:39:07.378Z,54.10
2019-02-16T15:41:38.242Z,54.80
2019-02-16T15:44:10.708Z,56.40
2019-02-16T15:46:41.458Z,54.90
2019-02-16T15:49:12.227Z,53.30
2019-02-16T15:51:43.051Z,53.70
2019-02-16T15:54:13.726Z,54.50
2019-02-16T15:56:44.484Z,55.80
2019-02-16T15:59:15.243Z,56.30
2019-02-16T16:01:45.867Z,57.40
2019-02-16T16:04:16.562Z,55.50
2019-02-16T16:06:47.221Z,53.90
2019-02-16T16:09:27.445Z,55.70
2019-02-16T16:12:07.394Z,55.50
2019-02-16T16:14:49.186Z,55.90
2019-02-16T16:17:38.370Z,56.60
2019-02-16T16:20:27.414Z,58.60
2019-02-16T16:23:18.321Z,58.70
2019-02-16T16:26:20.186Z,56.60
2019-02-16T16:29:28.292Z,58.80
2019-02-16T16:32:27.186Z,59.80
2019-02-16T16:35:22.802Z,60.40
2019-02-16T16:38:04.391Z,60.10
2019-02-16T16:40:44.955Z,60.30
2019-02-16T16:43:33.402Z,60.10
2019-02-16T16:46:41.517Z,59.70
2019-02-16T16:49:31.290Z,60.50
2019-02-16T16:52:09.255Z,60.60
2019-02-16T16:54:56.208Z,60.00
2019-02-16T16:57:45.681Z,60.80
2019-02-16T17:00:41.500Z,61.20
2019-02-16T17:03:34.147Z,62.50
2019-02-16T17:06:16.963Z,62.10
2019-02-16T17:09:15.755Z,61.60
2019-02-16T17:12:04.511Z,62.10
2019-02-16T17:14:59.616Z,63.30
2019-02-16T17:18:07.621Z,62.90
2019-02-16T17:42:44.645Z,66.80
2019-02-16T17:49:21.448Z,68.00
2019-02-16T18:21:17.578Z,70.80
2019-02-16T18:24:11.845Z,73.90
2019-02-16T18:27:19.854Z,75.90
2019-02-16T18:30:04.718Z,75.30
2019-02-16T18:50:19.805Z,74.30
2019-02-16T18:53:02.921Z,75.50
2019-02-16T19:10:48.819Z,75.10
2019-02-16T20:59:47.470Z,81.40
2019-02-16T21:02:52.301Z,83.60
2019-02-16T21:05:48.224Z,83.50
2019-02-16T21:08:40.772Z,82.20
2019-02-16T21:11:30.552Z,84.10
2019-02-16T21:14:15.748Z,83.10
2019-02-16T21:16:58.027Z,83.80
2019-02-16T21:19:53.851Z,84.30
2019-02-16T21:22:41.885Z,83.20
2019-02-16T21:25:27.773Z,84.20
2019-02-16T21:28:17.552Z,84.70
2019-02-16T21:31:13.374Z,84.70
2019-02-16T21:34:10.628Z,85.10
2019-02-16T21:36:58.773Z,85.30
2019-02-16T21:40:03.910Z,84.90
2019-02-16T21:53:21.403Z,85.40
2019-02-16T21:56:01.302Z,85.10
2019-02-16T21:58:50.412Z,85.20
2019-02-16T22:01:32.414Z,86.20
2019-02-16T22:04:38.472Z,86.20
2019-02-16T22:07:23.645Z,86.60
2019-02-16T22:10:19.361Z,86.20
2019-02-16T22:13:08.629Z,85.90
2019-02-16T22:15:40.317Z,83.90
2019-02-16T22:18:11.081Z,81.90
2019-02-16T22:20:41.752Z,81.40
2019-02-16T22:23:13.679Z,83.10
2019-02-16T22:25:44.367Z,81.80
2019-02-16T22:30:46.862Z,82.20
2019-02-16T22:33:17.736Z,82.90
2019-02-16T22:35:48.422Z,83.10
2019-02-16T22:38:19.304Z,83.30
2019-02-16T22:40:50.112Z,83.30
2019-02-16T22:43:20.790Z,84.30
2019-02-16T22:45:51.663Z,84.40
2019-02-16T22:48:22.356Z,84.20
2019-02-16T22:50:53.024Z,83.90
2019-02-16T22:53:23.814Z,82.60
2019-02-16T22:55:54.496Z,83.10
2019-02-16T22:58:29.155Z,84.80
2019-02-16T23:01:00.134Z,85.10
2019-02-16T23:03:32.481Z,83.80
2019-02-16T23:06:03.171Z,84.20
2019-02-16T23:08:33.957Z,83.70
2019-02-16T23:11:04.604Z,82.80
2019-02-16T23:13:35.478Z,82.80
2019-02-16T23:16:06.190Z,82.70
2019-02-16T23:18:36.972Z,83.00
2019-02-16T23:21:07.665Z,83.60
2019-02-16T23:23:38.476Z,84.20
2019-02-16T23:26:10.383Z,83.60
2019-02-16T23:28:41.131Z,84.80
2019-02-16T23:31:11.720Z,85.50
2019-02-16T23:33:42.393Z,84.80
2019-02-16T23:36:13.113Z,84.20
2019-02-16T23:38:43.988Z,84.80
2019-02-16T23:41:14.759Z,83.70
2019-02-16T23:43:45.538Z,84.30
2019-02-16T23:46:16.231Z,82.50
2019-02-16T23:48:46.998Z,82.80
2019-02-16T23:51:17.792Z,83.30
2019-02-16T23:53:48.695Z,84.40
2019-02-16T23:56:19.359Z,84.20
2019-02-16T23:58:50.252Z,85.30
